Time;durP1;ratioP1;P1;durP2;ratioP2;P2;SDS_P1;SDS_P2;PMS_P1;PMS_P2;Temp;Humidity;BMP_temperature;BMP_pressure;BME280_temperature;BME280_humidity;BME280_pressure;Samples;Min_cycle;Max_cycle;Signal;HPM_P1;HPM_P2
2022/07/04 00:00:30;;;;;;;4.82;0.50;;;15.30;87.20;;;;;;6213210;23;20021;-79
2022/07/04 00:02:56;;;;;;;9.73;0.80;;;15.30;87.30;;;;;;6214434;23;20019;-77
2022/07/04 00:05:23;;;;;;;5.35;1.35;;;15.30;87.30;;;;;;6213121;23;19997;-79
2022/07/04 00:07:50;;;;;;;2.17;0.73;;;15.30;87.30;;;;;;6213094;23;20005;-79
2022/07/04 00:10:18;;;;;;;0.82;0.60;;;15.30;87.40;;;;;;6213988;23;19997;-79
2022/07/04 00:12:45;;;;;;;2.17;0.60;;;15.30;87.30;;;;;;6212620;23;20412;-73
2022/07/04 00:15:12;;;;;;;1.42;0.60;;;15.30;87.20;;;;;;6213856;23;20428;-79
2022/07/04 00:17:39;;;;;;;3.60;0.82;;;15.30;87.20;;;;;;6212533;23;20008;-79
2022/07/04 00:20:07;;;;;;;0.70;0.50;;;15.30;87.10;;;;;;6213780;23;20004;-78
2022/07/04 00:22:34;;;;;;;3.28;0.70;;;15.30;87.00;;;;;;6212542;23;20466;-79
2022/07/04 00:25:00;;;;;;;4.15;0.73;;;15.20;87.00;;;;;;6213158;23;19997;-77
2022/07/04 00:27:27;;;;;;;1.08;0.52;;;15.20;86.90;;;;;;6213429;23;20424;-76
2022/07/04 00:29:53;;;;;;;1.83;0.77;;;15.20;86.90;;;;;;6212478;23;20004;-80
2022/07/04 00:32:20;;;;;;;1.17;0.55;;;15.20;86.90;;;;;;6213531;23;20352;-77
2022/07/04 00:34:46;;;;;;;1.55;0.73;;;15.20;86.90;;;;;;6212281;23;20309;-78
2022/07/04 00:37:13;;;;;;;1.65;0.75;;;15.20;86.80;;;;;;6213522;23;19997;-78
2022/07/04 00:39:40;;;;;;;2.15;0.52;;;15.20;86.80;;;;;;6212325;23;20004;-75
2022/07/04 00:42:06;;;;;;;4.20;1.08;;;15.20;86.80;;;;;;6213082;23;20091;-76
2022/07/04 00:44:36;;;;;;;0.50;0.40;;;15.20;86.70;;;;;;6213025;23;20660;-74
2022/07/04 00:47:04;;;;;;;4.35;0.93;;;15.20;86.70;;;;;;6212685;23;19994;-75
2022/07/04 00:49:30;;;;;;;2.55;0.55;;;15.20;86.70;;;;;;6213412;23;20008;-82
2022/07/04 00:51:57;;;;;;;0.75;0.47;;;15.20;86.70;;;;;;6212026;23;20001;-76
2022/07/04 00:54:30;;;;;;;0.57;0.40;;;15.20;86.70;;;;;;6213285;23;20028;-76
2022/07/04 00:56:57;;;;;;;4.22;1.33;;;15.20;86.70;;;;;;6212195;23;20071;-79
2022/07/04 00:59:24;;;;;;;5.30;1.10;;;15.20;86.60;;;;;;6213176;23;20008;-75
2022/07/04 01:01:51;;;;;;;3.72;0.60;;;15.10;86.50;;;;;;6212765;23;20048;-77
2022/07/04 01:04:18;;;;;;;1.27;0.40;;;15.10;86.50;;;;;;6212887;23;20108;-80
2022/07/04 01:06:45;;;;;;;3.60;0.50;;;15.10;86.50;;;;;;6213188;23;20423;-79
2022/07/04 01:09:13;;;;;;;4.35;0.55;;;15.10;86.40;;;;;;6210155;23;20324;-76
2022/07/04 01:11:39;;;;;;;1.95;0.40;;;15.10;86.30;;;;;;6213101;23;20414;-77
2022/07/04 01:14:06;;;;;;;10.45;0.90;;;15.10;86.20;;;;;;6211853;23;20343;-75
2022/07/04 01:16:33;;;;;;;0.90;0.50;;;15.10;86.30;;;;;;6213048;23;20501;-76
2022/07/04 01:18:59;;;;;;;0.35;0.28;;;15.10;86.30;;;;;;6212917;23;20004;-75
2022/07/04 01:21:26;;;;;;;3.25;0.50;;;15.10;86.20;;;;;;6212247;23;20017;-74
2022/07/04 01:23:53;;;;;;;3.10;0.55;;;15.10;86.10;;;;;;6212963;23;20019;-75
2022/07/04 01:26:20;;;;;;;0.85;0.22;;;15.00;86.00;;;;;;6212130;23;20474;-77
2022/07/04 01:28:47;;;;;;;3.10;0.38;;;15.10;86.00;;;;;;6213061;23;20035;-76
2022/07/04 01:31:13;;;;;;;3.30;0.70;;;15.00;85.90;;;;;;6211629;23;20001;-79
2022/07/04 01:33:40;;;;;;;4.22;0.80;;;15.00;85.80;;;;;;6213044;23;20004;-73
2022/07/04 01:36:06;;;;;;;2.78;0.73;;;15.10;85.80;;;;;;6212023;23;20000;-77
2022/07/04 01:38:33;;;;;;;1.45;0.63;;;15.00;85.60;;;;;;6212681;23;20000;-77
2022/07/04 01:40:59;;;;;;;0.77;0.57;;;15.00;85.60;;;;;;6212653;23;20007;-75
2022/07/04 01:43:26;;;;;;;2.20;0.50;;;15.00;85.60;;;;;;6211690;23;20495;-76
2022/07/04 01:45:52;;;;;;;1.50;0.85;;;15.00;85.60;;;;;;6212732;23;20072;-78
2022/07/04 01:48:19;;;;;;;1.33;0.50;;;15.00;85.60;;;;;;6211520;23;20387;-75
2022/07/04 01:50:45;;;;;;;2.25;0.70;;;15.00;85.60;;;;;;6212816;23;20028;-75
2022/07/04 01:53:12;;;;;;;2.42;0.50;;;15.00;85.80;;;;;;6211076;23;20451;-76
2022/07/04 01:55:38;;;;;;;2.42;0.43;;;15.00;85.70;;;;;;6212847;23;20440;-80
2022/07/04 01:58:05;;;;;;;2.72;0.70;;;15.00;85.60;;;;;;6210503;23;20305;-75
2022/07/04 02:03:16;;;;;;;4.65;0.88;;;15.00;85.50;;;;;;6212484;23;20023;-77
2022/07/04 02:05:44;;;;;;;0.88;0.85;;;15.00;85.40;;;;;;6212206;23;20300;-77
2022/07/04 02:08:11;;;;;;;1.75;0.50;;;15.00;85.30;;;;;;6211811;23;20425;-80
2022/07/04 02:10:37;;;;;;;3.22;0.70;;;14.90;85.30;;;;;;6211533;23;20107;-79
2022/07/04 02:13:04;;;;;;;4.03;0.63;;;14.90;85.30;;;;;;6212424;23;20008;-78
2022/07/04 02:15:41;;;;;;;1.33;0.60;;;15.00;85.30;;;;;;6211827;23;20359;-77
2022/07/04 02:18:09;;;;;;;2.20;0.50;;;15.00;85.40;;;;;;6209787;23;20566;-81
2022/07/04 02:20:37;;;;;;;1.80;0.50;;;15.00;85.30;;;;;;6212424;23;20122;-76
2022/07/04 02:23:04;;;;;;;1.17;0.47;;;14.90;85.30;;;;;;6211069;23;20427;-75
2022/07/04 02:25:31;;;;;;;2.92;0.73;;;15.00;85.40;;;;;;6212616;23;20028;-74
2022/07/04 02:27:57;;;;;;;3.33;0.50;;;14.90;85.30;;;;;;6211463;23;20332;-76
2022/07/04 02:30:25;;;;;;;2.58;0.50;;;14.90;85.50;;;;;;6212235;23;20028;-74
2022/07/04 02:32:51;;;;;;;0.68;0.40;;;14.90;85.60;;;;;;6212113;23;20055;-76
2022/07/04 02:35:18;;;;;;;3.28;0.70;;;14.90;85.70;;;;;;6211541;23;19997;-78
2022/07/04 02:37:44;;;;;;;3.38;0.90;;;14.90;85.70;;;;;;6212606;23;19997;-79
2022/07/04 02:40:11;;;;;;;0.95;0.63;;;14.90;85.70;;;;;;6211177;23;20055;-76
2022/07/04 02:42:38;;;;;;;3.17;0.52;;;14.90;85.90;;;;;;6212287;23;20328;-80
2022/07/04 02:45:05;;;;;;;2.05;0.52;;;14.90;86.00;;;;;;6211214;23;20375;-75
2022/07/04 02:47:32;;;;;;;11.63;2.20;;;14.90;86.00;;;;;;6212420;23;20462;-77
2022/07/04 02:50:01;;;;;;;26.65;1.60;;;14.90;86.00;;;;;;6211847;23;20097;-78
2022/07/04 02:52:29;;;;;;;7.50;2.10;;;14.90;86.40;;;;;;6211981;23;20072;-81
2022/07/04 02:54:56;;;;;;;11.45;1.42;;;14.90;86.60;;;;;;6212534;23;20074;-75
2022/07/04 02:57:22;;;;;;;6.88;1.45;;;14.90;86.50;;;;;;6209461;23;20396;-77
2022/07/04 02:59:49;;;;;;;3.60;0.88;;;14.90;86.50;;;;;;6212347;23;19997;-78
2022/07/04 03:02:15;;;;;;;2.38;0.70;;;14.90;86.40;;;;;;6210917;23;20362;-71
2022/07/04 03:04:42;;;;;;;7.43;1.60;;;14.90;86.40;;;;;;6213508;23;20005;-81
2022/07/04 03:07:09;;;;;;;3.58;1.35;;;14.90;86.50;;;;;;6213694;23;20000;-78
2022/07/04 03:09:35;;;;;;;3.70;1.80;;;14.80;86.20;;;;;;6213973;23;20000;-80
2022/07/04 03:12:02;;;;;;;4.53;2.00;;;14.80;86.00;;;;;;6214301;23;19997;-78
2022/07/04 03:14:29;;;;;;;3.15;1.92;;;14.80;85.80;;;;;;6213168;23;20007;-79
2022/07/04 03:16:56;;;;;;;3.55;2.10;;;14.80;85.70;;;;;;6214300;23;20043;-73
2022/07/04 03:19:22;;;;;;;4.78;1.92;;;14.80;85.40;;;;;;6212889;23;20071;-77
2022/07/04 03:21:49;;;;;;;4.82;2.20;;;14.70;84.80;;;;;;6213899;23;20013;-78
2022/07/04 03:24:15;;;;;;;10.70;2.78;;;14.70;85.30;;;;;;6213055;23;20013;-74
2022/07/04 03:26:42;;;;;;;9.50;2.22;;;14.70;85.60;;;;;;6214170;23;19993;-78
2022/07/04 03:29:08;;;;;;;11.38;2.33;;;14.70;85.80;;;;;;6213864;23;20000;-70
2022/07/04 03:31:35;;;;;;;10.70;2.75;;;14.70;85.80;;;;;;6213179;23;20020;-74
2022/07/04 03:34:01;;;;;;;11.90;3.83;;;14.70;85.80;;;;;;6214062;23;20028;-78
2022/07/04 03:36:28;;;;;;;8.13;2.88;;;14.60;85.80;;;;;;6213157;23;20015;-78
2022/07/04 03:38:54;;;;;;;5.97;2.80;;;14.70;85.80;;;;;;6214045;23;20001;-71
2022/07/04 03:41:21;;;;;;;5.93;2.47;;;14.60;85.60;;;;;;6212779;23;20325;-72
2022/07/04 03:43:47;;;;;;;9.32;2.78;;;14.60;85.20;;;;;;6213992;23;20023;-78
2022/07/04 03:46:14;;;;;;;5.05;2.72;;;14.50;84.70;;;;;;6211692;23;20364;-78
2022/07/04 03:48:43;;;;;;;6.95;2.63;;;14.50;84.50;;;;;;6213291;23;20063;-73
2022/07/04 03:51:10;;;;;;;6.45;2.80;;;14.50;84.40;;;;;;6214036;23;20047;-77
2022/07/04 03:53:37;;;;;;;6.55;3.17;;;14.40;84.30;;;;;;6212581;23;20076;-77
2022/07/04 03:56:04;;;;;;;3.90;2.70;;;14.40;84.20;;;;;;6213880;23;20020;-74
2022/07/04 03:58:30;;;;;;;4.63;2.75;;;14.40;84.20;;;;;;6212567;23;20000;-73
2022/07/04 04:00:58;;;;;;;5.05;2.45;;;14.40;84.10;;;;;;6213729;23;20325;-72
2022/07/04 04:06:09;;;;;;;6.40;3.33;;;14.30;84.10;;;;;;6213129;23;20324;-75
2022/07/04 04:08:35;;;;;;;9.13;2.97;;;14.30;84.10;;;;;;6213713;23;20032;-72
2022/07/04 04:11:02;;;;;;;6.75;2.78;;;14.30;84.20;;;;;;6212877;23;20008;-77
2022/07/04 04:13:28;;;;;;;4.95;1.80;;;14.30;84.20;;;;;;6213688;23;20327;-74
2022/07/04 04:15:55;;;;;;;5.20;2.20;;;14.30;84.20;;;;;;6212187;23;20403;-78
2022/07/04 04:18:21;;;;;;;4.20;1.63;;;14.30;84.40;;;;;;6213106;23;20001;-75
2022/07/04 04:20:48;;;;;;;1.50;1.10;;;14.30;84.70;;;;;;6212445;23;20023;-76
2022/07/04 04:23:14;;;;;;;1.02;0.90;;;14.30;84.80;;;;;;6212535;23;20004;-70
2022/07/04 04:25:41;;;;;;;6.00;0.95;;;14.30;85.10;;;;;;6213322;23;20001;-70
2022/07/04 04:28:07;;;;;;;3.50;1.10;;;14.30;85.50;;;;;;6212298;23;20001;-70
2022/07/04 04:30:34;;;;;;;2.47;1.02;;;14.30;86.10;;;;;;6213322;23;20067;-78
2022/07/04 04:33:00;;;;;;;6.70;1.40;;;14.30;86.50;;;;;;6212245;23;20015;-76
2022/07/04 04:35:27;;;;;;;1.52;0.95;;;14.30;86.90;;;;;;6213378;23;20001;-76
2022/07/04 04:37:53;;;;;;;4.38;1.00;;;14.40;87.30;;;;;;6210407;23;20087;-79
2022/07/04 04:40:20;;;;;;;1.67;0.80;;;14.40;87.40;;;;;;6213122;23;20000;-73
2022/07/04 04:42:46;;;;;;;5.90;0.90;;;14.40;87.50;;;;;;6213051;23;20009;-75
2022/07/04 04:45:13;;;;;;;3.60;0.77;;;14.40;87.40;;;;;;6212341;23;20003;-76
2022/07/04 04:47:40;;;;;;;4.03;0.80;;;14.40;87.40;;;;;;6213400;23;20302;-79
2022/07/04 04:50:11;;;;;;;5.35;1.25;;;14.40;87.40;;;;;;6211999;23;20459;-72
2022/07/04 04:52:38;;;;;;;2.35;0.82;;;14.40;87.50;;;;;;6213152;23;20011;-78
2022/07/04 04:55:05;;;;;;;5.30;1.38;;;14.40;87.70;;;;;;6211923;23;20080;-74
2022/07/04 04:57:32;;;;;;;2.35;0.80;;;14.40;87.90;;;;;;6213177;23;20000;-74
2022/07/04 04:59:58;;;;;;;7.63;1.17;;;14.40;87.90;;;;;;6212627;23;20005;-76
2022/07/04 05:02:25;;;;;;;7.57;1.17;;;14.40;87.90;;;;;;6212365;23;20040;-75
2022/07/04 05:04:51;;;;;;;4.15;0.73;;;14.40;88.00;;;;;;6213319;23;20000;-74
2022/07/04 05:07:18;;;;;;;3.40;1.02;;;14.40;88.00;;;;;;6211905;23;20008;-76
2022/07/04 05:09:44;;;;;;;4.88;0.98;;;14.40;88.10;;;;;;6213323;23;20090;-74
2022/07/04 05:12:11;;;;;;;3.92;1.58;;;14.40;88.00;;;;;;6211917;23;20004;-73
2022/07/04 05:14:37;;;;;;;1.83;0.32;;;14.40;88.10;;;;;;6213041;23;20051;-71
2022/07/04 05:17:04;;;;;;;1.48;0.70;;;14.30;88.00;;;;;;6212186;23;20086;-73
2022/07/04 05:19:30;;;;;;;3.25;1.00;;;14.40;88.00;;;;;;6212805;23;20336;-76
2022/07/04 05:21:57;;;;;;;1.85;0.90;;;14.40;88.00;;;;;;6212397;23;20078;-77
2022/07/04 05:24:24;;;;;;;3.13;1.35;;;14.40;88.00;;;;;;6211996;23;20004;-73
2022/07/04 05:26:50;;;;;;;6.57;1.10;;;14.40;88.00;;;;;;6212561;23;20000;-74
2022/07/04 05:29:17;;;;;;;4.93;0.93;;;14.40;88.00;;;;;;6211639;23;20142;-71
2022/07/04 05:31:43;;;;;;;3.78;1.02;;;14.40;88.00;;;;;;6212760;23;20293;-70
2022/07/04 05:34:10;;;;;;;3.00;2.10;;;14.30;88.00;;;;;;6211658;23;20050;-75
2022/07/04 05:36:36;;;;;;;3.80;0.70;;;14.40;88.10;;;;;;6212850;23;20353;-70
2022/07/04 05:39:03;;;;;;;3.28;0.90;;;14.30;88.00;;;;;;6212284;23;20003;-74
2022/07/04 05:41:29;;;;;;;5.35;0.85;;;14.30;88.00;;;;;;6212081;23;20107;-75
2022/07/04 05:43:56;;;;;;;2.45;0.57;;;14.30;87.90;;;;;;6212773;23;20097;-75
2022/07/04 05:46:22;;;;;;;2.83;1.60;;;14.30;88.00;;;;;;6211530;23;20001;-71
2022/07/04 05:49:28;;;;;;;3.97;1.95;;;14.30;88.00;;;;;;6211538;23;20011;-73
2022/07/04 05:52:34;;;;;;;3.25;1.67;;;14.30;88.00;;;;;;6210873;23;20435;-77
2022/07/04 05:55:40;;;;;;;3.83;0.90;;;14.30;88.00;;;;;;6210170;23;20011;-73
2022/07/04 05:58:46;;;;;;;13.50;1.40;;;14.30;88.00;;;;;;6211573;23;20054;-76
2022/07/04 06:01:52;;;;;;;6.22;1.45;;;14.30;88.10;;;;;;6211233;23;20001;-74
2022/07/04 06:04:59;;;;;;;4.30;1.67;;;14.30;88.20;;;;;;6210216;23;20083;-74
2022/07/04 06:08:05;;;;;;;4.55;1.00;;;14.30;88.30;;;;;;6210377;23;20005;-72
2022/07/04 06:11:12;;;;;;;3.90;1.60;;;14.30;88.20;;;;;;6211175;23;20447;-74
2022/07/04 06:14:18;;;;;;;2.78;2.20;;;14.20;88.00;;;;;;6210363;23;20012;-74
2022/07/04 06:17:24;;;;;;;5.45;3.78;;;14.30;87.90;;;;;;6209801;23;20039;-76
2022/07/04 06:20:30;;;;;;;9.07;3.80;;;14.20;87.60;;;;;;6211217;23;20005;-75
2022/07/04 06:23:36;;;;;;;8.50;3.58;;;14.20;87.30;;;;;;6211173;23;20119;-71
2022/07/04 06:26:42;;;;;;;7.85;4.75;;;14.20;87.30;;;;;;6209645;23;20008;-75
2022/07/04 06:29:48;;;;;;;8.95;3.83;;;14.20;87.30;;;;;;6210553;23;20324;-77
2022/07/04 06:33:10;;;;;;;9.93;4.43;;;14.20;87.20;;;;;;6210999;23;20603;-78
2022/07/04 06:36:16;;;;;;;7.25;3.45;;;14.20;87.10;;;;;;6210309;23;20036;-72
2022/07/04 06:39:22;;;;;;;9.27;2.90;;;14.10;86.90;;;;;;6209698;23;20498;-75
2022/07/04 06:42:28;;;;;;;8.57;3.63;;;14.10;86.90;;;;;;6210241;23;20076;-72
2022/07/04 06:45:34;;;;;;;6.43;2.10;;;14.20;87.00;;;;;;6211033;23;20040;-76
2022/07/04 06:48:40;;;;;;;8.40;3.17;;;14.10;87.00;;;;;;6209885;23;20032;-72
2022/07/04 06:51:52;;;;;;;4.68;1.10;;;14.20;87.10;;;;;;6210191;23;20336;-78
2022/07/04 06:54:59;;;;;;;3.42;1.35;;;14.10;87.20;;;;;;6210701;23;20001;-74
2022/07/04 06:58:06;;;;;;;6.88;2.70;;;14.20;87.50;;;;;;6210438;23;20001;-76
2022/07/04 07:01:12;;;;;;;5.93;1.42;;;14.20;87.90;;;;;;6209515;23;20001;-75
2022/07/04 07:04:10;;;;;;;7.82;2.55;;;14.20;88.10;;;;;;6209403;23;20020;-80
2022/07/04 07:06:40;;;;;;;7.40;3.50;;;14.20;88.30;;;;;;6185604;23;20008;-76
2022/07/04 07:09:07;;;;;;;12.73;5.53;;;14.20;88.40;;;;;;6209695;23;20451;-74
2022/07/04 07:11:33;;;;;;;9.23;4.22;;;14.20;88.40;;;;;;6210865;23;20000;-73
2022/07/04 07:14:00;;;;;;;12.93;4.20;;;14.20;88.50;;;;;;6209165;23;19996;-74
2022/07/04 07:16:26;;;;;;;9.15;4.00;;;14.20;88.70;;;;;;6210645;23;20050;-69
2022/07/04 07:18:53;;;;;;;7.15;3.58;;;14.20;88.90;;;;;;6210127;23;20008;-78
2022/07/04 07:21:19;;;;;;;10.88;4.63;;;14.20;89.00;;;;;;6209657;23;20009;-69
2022/07/04 07:23:46;;;;;;;8.75;4.65;;;14.20;89.20;;;;;;6210660;23;20059;-78
2022/07/04 07:26:12;;;;;;;10.70;5.70;;;14.30;89.40;;;;;;6209415;23;20314;-72
2022/07/04 07:28:39;;;;;;;7.25;4.63;;;14.30;89.50;;;;;;6210856;23;20012;-76
2022/07/04 07:31:06;;;;;;;7.72;4.60;;;14.30;89.70;;;;;;6209676;23;20008;-73
2022/07/04 07:33:32;;;;;;;9.40;4.35;;;14.30;89.80;;;;;;6210697;23;19997;-73
2022/07/04 07:35:59;;;;;;;10.35;4.53;;;14.30;89.90;;;;;;6209932;23;20051;-79
2022/07/04 07:38:38;;;;;;;6.90;4.22;;;14.30;90.00;;;;;;6210423;23;20425;-77
2022/07/04 07:41:09;;;;;;;6.20;3.58;;;14.40;90.20;;;;;;6210176;23;20499;-72
2022/07/04 07:43:36;;;;;;;5.65;2.67;;;14.30;90.10;;;;;;6208960;23;20063;-78
2022/07/04 07:46:05;;;;;;;5.95;2.17;;;14.40;90.10;;;;;;6211102;23;20359;-71
2022/07/04 07:48:31;;;;;;;3.85;2.20;;;14.40;90.20;;;;;;6209435;23;20004;-75
2022/07/04 07:50:58;;;;;;;3.05;1.40;;;14.40;90.20;;;;;;6212457;23;20368;-73
2022/07/04 07:53:26;;;;;;;4.57;1.52;;;14.50;90.20;;;;;;6212539;23;20008;-79
2022/07/04 07:55:52;;;;;;;6.95;1.70;;;14.50;90.20;;;;;;6212140;23;20000;-72
2022/07/04 07:58:19;;;;;;;6.90;1.80;;;14.50;90.30;;;;;;6212051;23;19997;-70
2022/07/04 08:00:46;;;;;;;6.95;2.25;;;14.50;90.30;;;;;;6211193;23;19997;-70
2022/07/04 08:05:58;;;;;;;3.15;1.75;;;14.60;90.40;;;;;;6211223;23;20059;-70
